Time;durP1;ratioP1;P1;durP2;ratioP2;P2;SDS_P1;SDS_P2;PMS_P1;PMS_P2;Temp;Humidity;BMP_temperature;BMP_pressure;BME280_temperature;BME280_humidity;BME280_pressure;Samples;Min_cycle;Max_cycle;Signal;HPM_P1;HPM_P2
2022/12/03 00:00:47;;;;;;;;;37.25;31.75;;;;;-146.44;100.00;58906.56;5016453;28;48998;-51
2022/12/03 00:03:12;;;;;;;;;37.50;31.75;;;;;-146.44;100.00;58906.56;5016169;28;50624;-49
2022/12/03 00:05:37;;;;;;;;;39.00;33.75;;;;;-146.44;100.00;58906.56;5016875;28;45486;-51
2022/12/03 00:08:03;;;;;;;;;34.75;33.50;;;;;-146.44;100.00;58906.56;5016727;28;45611;-49
2022/12/03 00:10:28;;;;;;;;;33.00;27.50;;;;;-146.44;100.00;58906.56;5016580;28;45589;-49
2022/12/03 00:12:54;;;;;;;;;34.25;31.00;;;;;-146.44;100.00;58906.56;5016478;28;45541;-50
2022/12/03 00:15:19;;;;;;;;;36.50;31.25;;;;;-146.44;100.00;58906.56;5016399;28;45477;-53
2022/12/03 00:17:44;;;;;;;;;38.75;35.25;;;;;-146.44;100.00;58906.56;5016688;28;45927;-51
2022/12/03 00:20:17;;;;;;;;;38.00;34.00;;;;;-146.44;100.00;58906.56;5016313;28;45857;-52
2022/12/03 00:22:43;;;;;;;;;36.75;32.25;;;;;-146.44;100.00;58906.56;5016359;28;46409;-50
2022/12/03 00:25:08;;;;;;;;;40.00;34.00;;;;;-146.44;100.00;58906.56;5015681;28;54352;-51
2022/12/03 00:27:34;;;;;;;;;39.50;34.50;;;;;-146.44;100.00;58906.56;5016450;28;45505;-50
2022/12/03 00:29:59;;;;;;;;;33.25;33.25;;;;;-146.44;100.00;58906.56;5015798;28;48882;-52
2022/12/03 00:32:24;;;;;;;;;48.25;37.75;;;;;-146.44;100.00;58906.56;5015838;28;57646;-52
2022/12/03 00:34:50;;;;;;;;;34.00;31.00;;;;;-146.44;100.00;58906.56;5015898;28;50437;-51
2022/12/03 00:37:15;;;;;;;;;40.25;35.00;;;;;-146.44;100.00;58906.56;5015974;28;45522;-50
2022/12/03 00:39:40;;;;;;;;;32.00;30.50;;;;;-146.44;100.00;58906.56;5016215;28;45580;-49
2022/12/03 00:42:06;;;;;;;;;37.25;33.50;;;;;-146.44;100.00;58906.56;5015473;28;57146;-50
2022/12/03 00:44:31;;;;;;;;;36.00;31.00;;;;;-146.44;100.00;58906.56;5015914;28;45485;-47
2022/12/03 00:46:56;;;;;;;;;39.50;32.25;;;;;-146.44;100.00;58906.56;5016271;28;45486;-52
2022/12/03 00:49:21;;;;;;;;;35.25;32.25;;;;;-146.44;100.00;58906.56;5015655;28;45494;-49
2022/12/03 00:51:47;;;;;;;;;36.00;33.00;;;;;-146.44;100.00;58906.56;5015819;28;46038;-51
2022/12/03 00:54:12;;;;;;;;;38.25;32.00;;;;;-146.44;100.00;58906.56;5015757;28;45671;-51
2022/12/03 00:56:37;;;;;;;;;36.75;31.25;;;;;-146.44;100.00;58906.56;5016038;28;45468;-50
2022/12/03 00:59:03;;;;;;;;;36.25;33.25;;;;;-146.44;100.00;58906.56;5015490;28;46278;-51
2022/12/03 01:01:28;;;;;;;;;34.25;32.50;;;;;-146.44;100.00;58906.56;5015423;28;48124;-50
2022/12/03 01:03:53;;;;;;;;;31.50;30.75;;;;;-146.44;100.00;58906.56;5015466;28;45533;-53
2022/12/03 01:06:19;;;;;;;;;30.75;26.50;;;;;-146.44;100.00;58906.56;5015280;28;46475;-49
2022/12/03 01:08:44;;;;;;;;;38.50;32.75;;;;;-146.44;100.00;58906.56;5015867;28;45621;-48
2022/12/03 01:11:36;;;;;;;;;40.50;35.25;;;;;-146.44;100.00;58906.56;5015372;28;45561;-48
2022/12/03 01:13:54;;;;;;;;;38.50;33.00;;;;;-146.44;100.00;58906.56;5015373;28;45410;-49
2022/12/03 01:16:20;;;;;;;;;32.75;32.25;;;;;-146.44;100.00;58906.56;5015362;28;45477;-49
2022/12/03 01:18:45;;;;;;;;;29.75;24.00;;;;;-146.44;100.00;58906.56;5030771;28;45605;-49
2022/12/03 01:21:11;;;;;;;;;34.75;32.75;;;;;-146.44;100.00;58906.56;5015280;28;45437;-50
2022/12/03 01:23:36;;;;;;;;;30.75;26.75;;;;;-146.44;100.00;58906.56;5015460;28;45454;-49
2022/12/03 01:26:02;;;;;;;;;35.25;30.50;;;;;-146.44;100.00;58906.56;5011183;28;47551;-51
2022/12/03 01:28:28;;;;;;;;;33.00;31.25;;;;;-146.44;100.00;58906.56;5011725;28;45628;-50
2022/12/03 01:33:37;;;;;;;;;34.50;30.50;;;;;-146.44;100.00;58906.56;5015296;28;45458;-47
2022/12/03 01:36:03;;;;;;;;;31.00;27.00;;;;;-146.44;100.00;58906.56;5015775;28;45425;-48
2022/12/03 01:38:28;;;;;;;;;31.25;26.00;;;;;-146.44;100.00;58906.56;5015084;28;45472;-49
2022/12/03 01:40:53;;;;;;;;;42.50;33.00;;;;;-146.44;100.00;58906.56;5015121;28;45553;-48
2022/12/03 01:43:19;;;;;;;;;27.25;25.75;;;;;-146.44;100.00;58906.56;5015094;28;45514;-50
2022/12/03 01:45:44;;;;;;;;;34.25;32.00;;;;;-146.44;100.00;58906.56;5014961;28;45842;-47
2022/12/03 01:48:15;;;;;;;;;38.50;35.00;;;;;-146.44;100.00;58906.56;5015121;28;45653;-53
2022/12/03 01:50:41;;;;;;;;;38.75;35.75;;;;;-146.44;100.00;58906.56;5014750;28;46392;-50
2022/12/03 01:53:13;;;;;;;;;33.00;31.00;;;;;-146.44;100.00;58906.56;5014970;28;45505;-51
2022/12/03 01:55:39;;;;;;;;;31.50;29.25;;;;;-146.44;100.00;58906.56;5014709;28;45474;-51
2022/12/03 01:58:04;;;;;;;;;38.25;32.00;;;;;-146.44;100.00;58906.56;5014921;28;46120;-49
2022/12/03 02:00:30;;;;;;;;;33.00;30.50;;;;;-146.44;100.00;58906.56;5014317;28;46225;-52
2022/12/03 02:03:01;;;;;;;;;32.00;32.00;;;;;-146.44;100.00;58906.56;5014767;28;45502;-50
2022/12/03 02:05:29;;;;;;;;;32.50;31.25;;;;;-146.44;100.00;58906.56;5014871;28;45728;-49
2022/12/03 02:07:55;;;;;;;;;34.25;30.00;;;;;-146.44;100.00;58906.56;5014596;28;45502;-58
2022/12/03 02:10:34;;;;;;;;;32.50;30.00;;;;;-146.44;100.00;58906.56;5014448;28;45479;-50
2022/12/03 02:13:03;;;;;;;;;31.75;31.25;;;;;-146.44;100.00;58906.56;5014414;28;45384;-50
2022/12/03 02:15:29;;;;;;;;;34.50;31.75;;;;;-146.44;100.00;58906.56;5014623;28;45446;-50
2022/12/03 02:17:55;;;;;;;;;34.75;33.25;;;;;-146.44;100.00;58906.56;5014296;28;45421;-51
2022/12/03 02:20:21;;;;;;;;;32.00;30.50;;;;;-146.44;100.00;58906.56;5014351;28;46144;-50
2022/12/03 02:23:07;;;;;;;;;35.50;31.75;;;;;-146.44;100.00;58906.56;5014237;28;45479;-48
2022/12/03 02:25:35;;;;;;;;;36.50;33.25;;;;;-146.44;100.00;58906.56;5014193;28;45506;-52
2022/12/03 02:28:02;;;;;;;;;34.00;32.75;;;;;-146.44;100.00;58906.56;5014308;28;45560;-49
2022/12/03 02:30:29;;;;;;;;;34.00;32.00;;;;;-146.44;100.00;58906.56;5014324;28;45529;-48
2022/12/03 02:32:55;;;;;;;;;32.00;30.50;;;;;-146.44;100.00;58906.56;5014121;28;45449;-47
2022/12/03 02:35:27;;;;;;;;;34.00;30.75;;;;;-146.44;100.00;58906.56;5014774;28;45909;-51
2022/12/03 02:37:57;;;;;;;;;42.00;35.25;;;;;-146.44;100.00;58906.56;5014435;28;45602;-50
2022/12/03 02:40:26;;;;;;;;;42.75;35.75;;;;;-146.44;100.00;58906.56;5014095;28;45458;-51
2022/12/03 02:42:57;;;;;;;;;37.50;33.75;;;;;-146.44;100.00;58906.56;5014277;28;45545;-50
2022/12/03 02:45:26;;;;;;;;;37.00;34.50;;;;;-146.44;100.00;58906.56;5013862;28;45469;-51
2022/12/03 02:48:01;;;;;;;;;34.25;33.25;;;;;-146.44;100.00;58906.56;5013962;28;45568;-49
2022/12/03 02:50:33;;;;;;;;;43.75;37.75;;;;;-146.44;100.00;58906.56;5013879;28;45496;-49
2022/12/03 02:53:02;;;;;;;;;39.75;36.00;;;;;-146.44;100.00;58906.56;5013909;28;45430;-51
2022/12/03 02:55:30;;;;;;;;;42.75;32.50;;;;;-146.44;100.00;58906.56;5013964;28;45668;-51
2022/12/03 02:57:56;;;;;;;;;31.50;30.50;;;;;-146.44;100.00;58906.56;5013444;28;45473;-50
2022/12/03 03:00:22;;;;;;;;;39.00;36.00;;;;;-146.44;100.00;58906.56;5013667;28;46397;-51
2022/12/03 03:02:49;;;;;;;;;43.50;36.00;;;;;-146.44;100.00;58906.56;5013946;28;45509;-52
2022/12/03 03:05:17;;;;;;;;;35.75;31.50;;;;;-146.44;100.00;58906.56;5013917;28;45502;-51
2022/12/03 03:07:43;;;;;;;;;32.75;28.75;;;;;-146.44;100.00;58906.56;5014016;28;45652;-50
2022/12/03 03:10:13;;;;;;;;;35.50;35.00;;;;;-146.44;100.00;58906.56;5013873;28;45459;-51
2022/12/03 03:12:39;;;;;;;;;43.75;37.00;;;;;-146.44;100.00;58906.56;5013521;28;45486;-49
2022/12/03 03:15:06;;;;;;;;;37.00;33.50;;;;;-146.44;100.00;58906.56;5013737;28;45481;-50
2022/12/03 03:17:31;;;;;;;;;37.75;34.75;;;;;-146.44;100.00;58906.56;5013767;28;45445;-49
2022/12/03 03:19:56;;;;;;;;;41.00;37.00;;;;;-146.44;100.00;58906.56;5013582;28;46287;-49
2022/12/03 03:22:35;;;;;;;;;41.75;38.00;;;;;-146.44;100.00;58906.56;5013462;28;45731;-50
2022/12/03 03:25:00;;;;;;;;;39.75;36.25;;;;;-146.44;100.00;58906.56;5013706;28;45540;-50
2022/12/03 03:27:27;;;;;;;;;37.75;36.25;;;;;-146.44;100.00;58906.56;5013501;28;45552;-52
2022/12/03 03:29:53;;;;;;;;;37.25;35.00;;;;;-146.44;100.00;58906.56;5013767;28;46169;-52
2022/12/03 03:32:18;;;;;;;;;38.25;36.75;;;;;-146.44;100.00;58906.56;5013417;28;45450;-49
2022/12/03 03:34:44;;;;;;;;;46.50;37.75;;;;;-146.44;100.00;58906.56;5013400;28;45671;-49
2022/12/03 03:37:09;;;;;;;;;39.25;36.00;;;;;-146.44;100.00;58906.56;5014105;28;45469;-47
2022/12/03 03:39:35;;;;;;;;;40.75;36.25;;;;;-146.44;100.00;58906.56;5013511;28;45487;-48
2022/12/03 03:42:00;;;;;;;;;41.25;37.50;;;;;-146.44;100.00;58906.56;5013386;28;45540;-53
2022/12/03 03:44:27;;;;;;;;;39.00;35.50;;;;;-146.44;100.00;58906.56;5013419;28;45483;-50
2022/12/03 03:46:53;;;;;;;;;46.75;38.00;;;;;-146.44;100.00;58906.56;5013355;28;45452;-48
2022/12/03 03:49:18;;;;;;;;;41.50;35.00;;;;;-146.44;100.00;58906.56;5013150;28;45560;-50
2022/12/03 03:51:43;;;;;;;;;33.75;32.00;;;;;-146.44;100.00;58906.56;5012976;28;46210;-49
2022/12/03 03:54:09;;;;;;;;;44.25;38.00;;;;;-146.44;100.00;58906.56;5013318;28;45504;-52
2022/12/03 03:56:34;;;;;;;;;45.00;36.25;;;;;-146.44;100.00;58906.56;5013501;28;45564;-49
2022/12/03 03:59:01;;;;;;;;;46.25;36.25;;;;;-146.44;100.00;58906.56;5013123;28;45453;-48
2022/12/03 04:01:27;;;;;;;;;40.25;36.75;;;;;-146.44;100.00;58906.56;5013169;28;45529;-48
2022/12/03 04:03:53;;;;;;;;;41.25;36.75;;;;;-146.44;100.00;58906.56;5013137;28;45525;-49
2022/12/03 04:06:19;;;;;;;;;42.25;36.00;;;;;-146.44;100.00;58906.56;5013174;28;45668;-50
2022/12/03 04:08:44;;;;;;;;;39.00;36.50;;;;;-146.44;100.00;58906.56;5012728;28;47091;-52
2022/12/03 04:13:53;;;;;;;;;42.50;37.75;;;;;-146.44;100.00;58906.56;5016505;28;45588;-52
2022/12/03 04:16:18;;;;;;;;;38.75;36.25;;;;;-146.44;100.00;58906.56;5016295;28;47326;-50
2022/12/03 04:18:43;;;;;;;;;47.50;37.25;;;;;-146.44;100.00;58906.56;5016477;28;45537;-48
2022/12/03 04:24:03;;;;;;;;;42.25;37.50;;;;;-146.44;100.00;58906.56;5016409;28;45454;-49
2022/12/03 04:29:13;;;;;;;;;42.25;37.50;;;;;-146.44;100.00;58906.56;5016000;28;46065;-47
2022/12/03 04:37:07;;;;;;;;;39.75;34.25;;;;;-146.44;100.00;58906.56;5004013;28;45489;-50
2022/12/03 04:39:33;;;;;;;;;38.00;33.25;;;;;-146.44;100.00;58906.56;5015963;28;45523;-51
2022/12/03 04:41:58;;;;;;;;;43.75;36.00;;;;;-146.44;100.00;58906.56;5015928;28;45582;-49
2022/12/03 04:44:34;;;;;;;;;38.50;34.00;;;;;-146.44;100.00;58906.56;5016342;28;45412;-51
2022/12/03 04:47:20;;;;;;;;;37.50;35.50;;;;;-146.44;100.00;58906.56;5016126;28;45583;-51
2022/12/03 04:49:50;;;;;;;;;41.25;36.00;;;;;-146.44;100.00;58906.56;5015465;28;45396;-51
2022/12/03 04:52:17;;;;;;;;;43.25;37.75;;;;;-146.44;100.00;58906.56;5015837;28;45642;-49
2022/12/03 04:54:43;;;;;;;;;38.00;32.75;;;;;-146.44;100.00;58906.56;5015741;28;45454;-49
2022/12/03 04:57:09;;;;;;;;;38.50;35.75;;;;;-146.44;100.00;58906.56;5015661;28;45633;-52
2022/12/03 04:59:35;;;;;;;;;37.25;33.50;;;;;-146.44;100.00;58906.56;5015696;28;46006;-53
2022/12/03 05:02:00;;;;;;;;;38.50;33.50;;;;;-146.44;100.00;58906.56;5015482;28;45575;-53
2022/12/03 05:04:26;;;;;;;;;34.75;32.00;;;;;-146.44;100.00;58906.56;5016011;28;45447;-49
2022/12/03 05:06:51;;;;;;;;;35.50;32.25;;;;;-146.44;100.00;58906.56;5015861;28;45630;-52
2022/12/03 05:09:17;;;;;;;;;37.75;33.25;;;;;-146.44;100.00;58906.56;5015173;28;51612;-55
2022/12/03 05:11:42;;;;;;;;;39.75;34.75;;;;;-146.44;100.00;58906.56;5015761;28;45466;-49
2022/12/03 05:14:09;;;;;;;;;36.50;33.75;;;;;-146.44;100.00;58906.56;5015562;28;45510;-50
2022/12/03 05:16:35;;;;;;;;;34.50;31.75;;;;;-146.44;100.00;58906.56;5015645;28;45418;-51
2022/12/03 05:19:01;;;;;;;;;35.00;30.75;;;;;-146.44;100.00;58906.56;5015372;28;45492;-52
2022/12/03 05:21:27;;;;;;;;;31.75;30.00;;;;;-146.44;100.00;58906.56;5014950;28;45462;-53
2022/12/03 05:23:52;;;;;;;;;38.75;32.00;;;;;-146.44;100.00;58906.56;5015430;28;45633;-48
2022/12/03 05:26:17;;;;;;;;;36.00;34.50;;;;;-146.44;100.00;58906.56;5015300;28;45414;-51
2022/12/03 05:28:43;;;;;;;;;35.25;33.00;;;;;-146.44;100.00;58906.56;5015378;28;45399;-52
2022/12/03 05:31:08;;;;;;;;;39.00;31.75;;;;;-146.44;100.00;58906.56;5015063;28;45475;-50
2022/12/03 05:33:34;;;;;;;;;39.75;34.00;;;;;-146.44;100.00;58906.56;5015561;28;45510;-50
2022/12/03 05:35:59;;;;;;;;;37.50;33.50;;;;;-146.44;100.00;58906.56;5015839;28;45724;-51
2022/12/03 05:38:24;;;;;;;;;36.00;28.50;;;;;-146.44;100.00;58906.56;5015032;28;45527;-50
2022/12/03 05:40:50;;;;;;;;;34.75;33.50;;;;;-146.44;100.00;58906.56;5015241;28;45489;-49
2022/12/03 05:43:15;;;;;;;;;35.50;30.25;;;;;-146.44;100.00;58906.56;5014942;28;45496;-52
2022/12/03 05:45:42;;;;;;;;;33.00;30.00;;;;;-146.44;100.00;58906.56;5015226;28;45636;-54
2022/12/03 05:48:09;;;;;;;;;36.75;32.25;;;;;-146.44;100.00;58906.56;5014890;28;45603;-48
2022/12/03 05:50:37;;;;;;;;;31.00;29.75;;;;;-146.44;100.00;58906.56;5014685;28;45501;-49
2022/12/03 05:53:02;;;;;;;;;27.50;25.25;;;;;-146.44;100.00;58906.56;5014897;28;45491;-53
2022/12/03 05:55:27;;;;;;;;;37.00;31.75;;;;;-146.44;100.00;58906.56;5014768;28;45696;-50
2022/12/03 05:57:53;;;;;;;;;37.25;31.00;;;;;-146.44;100.00;58906.56;5014820;28;46081;-53
2022/12/03 06:00:22;;;;;;;;;38.50;31.25;;;;;-146.44;100.00;58906.56;5014867;28;45454;-50
2022/12/03 06:02:47;;;;;;;;;34.25;30.75;;;;;-146.44;100.00;58906.56;5014895;28;45429;-52
2022/12/03 06:05:14;;;;;;;;;30.00;26.50;;;;;-146.44;100.00;58906.56;5014904;28;45708;-53
2022/12/03 06:07:40;;;;;;;;;30.75;28.25;;;;;-146.44;100.00;58906.56;5014790;28;46247;-49
2022/12/03 06:10:09;;;;;;;;;34.25;31.50;;;;;-146.44;100.00;58906.56;5014657;28;45640;-51
2022/12/03 06:12:34;;;;;;;;;38.25;32.50;;;;;-146.44;100.00;58906.56;5014563;28;45525;-52
2022/12/03 06:15:00;;;;;;;;;33.25;30.75;;;;;-146.44;100.00;58906.56;5014464;28;45580;-49
2022/12/03 06:17:25;;;;;;;;;30.00;28.25;;;;;-146.44;100.00;58906.56;5014394;28;46181;-49
2022/12/03 06:19:51;;;;;;;;;26.75;26.75;;;;;-146.44;100.00;58906.56;5014371;28;45530;-52
2022/12/03 06:22:17;;;;;;;;;32.25;30.75;;;;;-146.44;100.00;58906.56;5014407;28;45420;-51
2022/12/03 06:24:42;;;;;;;;;37.25;32.00;;;;;-146.44;100.00;58906.56;5014348;28;45506;-49
2022/12/03 06:27:07;;;;;;;;;31.00;30.25;;;;;-146.44;100.00;58906.56;5014024;28;52419;-50
2022/12/03 06:29:48;;;;;;;;;23.25;21.00;;;;;-146.44;100.00;58906.56;4989274;28;45588;-49
2022/12/03 06:32:13;;;;;;;;;37.00;31.50;;;;;-146.44;100.00;58906.56;5013431;28;45564;-54
2022/12/03 06:34:39;;;;;;;;;29.00;27.25;;;;;-146.44;100.00;58906.56;5014090;28;45412;-51
2022/12/03 06:37:04;;;;;;;;;34.00;26.50;;;;;-146.44;100.00;58906.56;5014945;28;46016;-49
2022/12/03 06:39:30;;;;;;;;;31.25;29.75;;;;;-146.44;100.00;58906.56;5014404;28;45449;-52
2022/12/03 06:41:55;;;;;;;;;33.25;29.75;;;;;-146.44;100.00;58906.56;5014269;28;46144;-49
2022/12/03 06:44:20;;;;;;;;;33.50;30.50;;;;;-146.44;100.00;58906.56;5014114;28;45667;-48
2022/12/03 06:46:46;;;;;;;;;29.25;27.00;;;;;-146.44;100.00;58906.56;5013875;28;46125;-50
2022/12/03 06:49:12;;;;;;;;;32.50;28.25;;;;;-146.44;100.00;58906.56;5014250;28;45449;-50
2022/12/03 06:51:37;;;;;;;;;34.50;30.75;;;;;-146.44;100.00;58906.56;5014161;28;45534;-48
2022/12/03 06:54:04;;;;;;;;;20.00;20.00;;;;;-146.44;100.00;58906.56;5014103;28;45557;-50
2022/12/03 06:56:29;;;;;;;;;25.25;23.75;;;;;-146.44;100.00;58906.56;5014097;28;45509;-53
2022/12/03 06:58:55;;;;;;;;;33.50;27.25;;;;;-146.44;100.00;58906.56;5013586;28;46399;-49
2022/12/03 07:01:21;;;;;;;;;26.75;21.75;;;;;-146.44;100.00;58906.56;5014069;28;45540;-49
2022/12/03 07:03:46;;;;;;;;;28.50;28.50;;;;;-146.44;100.00;58906.56;5013831;28;45569;-51
2022/12/03 07:06:12;;;;;;;;;26.25;25.00;;;;;-146.44;100.00;58906.56;5013863;28;46108;-49
2022/12/03 07:08:37;;;;;;;;;33.00;28.50;;;;;-146.44;100.00;58906.56;5013706;28;45533;-50
2022/12/03 07:11:03;;;;;;;;;36.25;29.75;;;;;-146.44;100.00;58906.56;5012788;28;45840;-52
2022/12/03 07:13:28;;;;;;;;;32.00;26.25;;;;;-146.44;100.00;58906.56;5013933;28;45529;-53
2022/12/03 07:15:53;;;;;;;;;32.75;31.25;;;;;-146.44;100.00;58906.56;5020258;28;46023;-48
2022/12/03 07:18:19;;;;;;;;;25.75;22.75;;;;;-146.44;100.00;58906.56;5014297;28;45502;-50
2022/12/03 07:20:44;;;;;;;;;25.00;24.00;;;;;-146.44;100.00;58906.56;5013860;28;45533;-49
2022/12/03 07:23:09;;;;;;;;;29.50;27.25;;;;;-146.44;100.00;58906.56;5014303;28;45755;-49
2022/12/03 07:25:35;;;;;;;;;25.50;24.75;;;;;-146.44;100.00;58906.56;5013828;28;45497;-54
2022/12/03 07:28:00;;;;;;;;;27.25;22.00;;;;;-146.44;100.00;58906.56;5026645;28;45472;-49
2022/12/03 07:30:26;;;;;;;;;31.75;26.25;;;;;-146.44;100.00;58906.56;5014025;28;45439;-49
2022/12/03 07:32:52;;;;;;;;;31.25;28.75;;;;;-146.44;100.00;58906.56;5013630;28;46377;-52
2022/12/03 07:35:17;;;;;;;;;25.75;24.75;;;;;-146.44;100.00;58906.56;5013528;28;45610;-49
2022/12/03 07:37:42;;;;;;;;;25.00;22.50;;;;;-146.44;100.00;58906.56;5014553;28;45546;-48
2022/12/03 07:40:08;;;;;;;;;30.00;24.25;;;;;-146.44;100.00;58906.56;5014017;28;45727;-48
2022/12/03 07:42:34;;;;;;;;;23.50;22.25;;;;;-146.44;100.00;58906.56;5013793;28;45554;-51
2022/12/03 07:44:59;;;;;;;;;26.25;23.50;;;;;-146.44;100.00;58906.56;5016406;28;45642;-49
2022/12/03 07:47:24;;;;;;;;;28.75;23.50;;;;;-146.44;100.00;58906.56;5017606;28;45426;-48
2022/12/03 07:49:50;;;;;;;;;28.00;25.00;;;;;-146.44;100.00;58906.56;5016138;28;45407;-51
2022/12/03 07:52:15;;;;;;;;;28.25;26.75;;;;;-146.44;100.00;58906.56;5017106;28;48877;-49
2022/12/03 07:54:40;;;;;;;;;24.00;22.25;;;;;-146.44;100.00;58906.56;5016940;28;46939;-50
2022/12/03 07:57:06;;;;;;;;;25.00;23.50;;;;;-146.44;100.00;58906.56;5017137;28;45406;-51
2022/12/03 07:59:31;;;;;;;;;25.50;25.50;;;;;-146.44;100.00;58906.56;5017611;28;45465;-51
2022/12/03 08:01:57;;;;;;;;;30.75;25.75;;;;;-146.44;100.00;58906.56;5018441;28;45688;-55
2022/12/03 08:04:22;;;;;;;;;21.50;18.75;;;;;-146.44;100.00;58906.56;5018266;28;45548;-51
2022/12/03 08:06:47;;;;;;;;;22.50;19.25;;;;;-146.44;100.00;58906.56;5016905;28;52817;-53
2022/12/03 08:09:13;;;;;;;;;23.25;23.25;;;;;-146.44;100.00;58906.56;5017446;28;45427;-53
2022/12/03 08:11:40;;;;;;;;;29.25;24.25;;;;;-146.44;100.00;58906.56;5018205;28;45445;-53
2022/12/03 08:14:13;;;;;;;;;23.50;22.25;;;;;-146.44;100.00;58906.56;5016824;28;46338;-51
2022/12/03 08:16:41;;;;;;;;;29.75;25.75;;;;;-146.44;100.00;58906.56;5023128;28;45494;-56
2022/12/03 08:19:13;;;;;;;;;31.50;26.75;;;;;-146.44;100.00;58906.56;5019599;28;45512;-54
2022/12/03 08:21:39;;;;;;;;;26.75;25.00;;;;;-146.44;100.00;58906.56;5016513;28;45450;-50
2022/12/03 08:24:24;;;;;;;;;21.25;21.00;;;;;-146.44;100.00;58906.56;5016037;28;46272;-49
2022/12/03 08:26:50;;;;;;;;;25.75;22.50;;;;;-146.44;100.00;58906.56;5017939;28;45494;-51
2022/12/03 08:29:18;;;;;;;;;22.25;21.00;;;;;-146.44;100.00;58906.56;5022619;28;45572;-53
2022/12/03 08:31:55;;;;;;;;;25.25;24.00;;;;;-146.44;100.00;58906.56;5021288;28;45544;-51
2022/12/03 08:34:25;;;;;;;;;24.25;23.00;;;;;-146.44;100.00;58906.56;5016375;28;45671;-52
2022/12/03 08:36:56;;;;;;;;;26.00;23.25;;;;;-146.44;100.00;58906.56;5017224;28;45651;-53
2022/12/03 08:39:22;;;;;;;;;26.00;21.50;;;;;-146.44;100.00;58906.56;5016821;28;45534;-55
2022/12/03 08:44:41;;;;;;;;;27.50;24.50;;;;;-146.44;100.00;58906.56;5016717;28;45487;-53
2022/12/03 08:47:19;;;;;;;;;29.00;25.50;;;;;-146.44;100.00;58906.56;5017631;28;45421;-54
2022/12/03 08:49:50;;;;;;;;;27.00;26.50;;;;;-146.44;100.00;58906.56;5022069;28;45495;-52
2022/12/03 08:52:18;;;;;;;;;27.75;27.00;;;;;-146.44;100.00;58906.56;5026466;28;45505;-49
2022/12/03 08:54:51;;;;;;;;;21.50;21.50;;;;;-146.44;100.00;58906.56;5023028;28;46090;-49
2022/12/03 08:57:27;;;;;;;;;25.25;24.75;;;;;-146.44;100.00;58906.56;5015204;28;45447;-52
2022/12/03 08:59:57;;;;;;;;;24.50;24.50;;;;;-146.44;100.00;58906.56;5007618;28;45587;-54
2022/12/03 09:02:31;;;;;;;;;21.75;17.50;;;;;-146.44;100.00;58906.56;5014544;28;45496;-53
2022/12/03 09:05:04;;;;;;;;;20.00;19.25;;;;;-146.44;100.00;58906.56;5015553;28;45508;-52
2022/12/03 09:07:30;;;;;;;;;23.00;21.00;;;;;-146.44;100.00;58906.56;5026942;28;45470;-62
2022/12/03 09:09:55;;;;;;;;;23.25;23.25;;;;;-146.44;100.00;58906.56;5008576;28;45470;-63
2022/12/03 09:12:20;;;;;;;;;24.75;22.75;;;;;-146.44;100.00;58906.56;5023548;28;45496;-60
2022/12/03 09:14:46;;;;;;;;;21.50;21.50;;;;;-146.44;100.00;58906.56;5015166;28;52546;-63
2022/12/03 09:17:11;;;;;;;;;25.00;25.00;;;;;-146.44;100.00;58906.56;5014669;28;57448;-63
2022/12/03 09:19:36;;;;;;;;;34.50;28.75;;;;;-146.44;100.00;58906.56;5017034;28;45534;-60
2022/12/03 09:22:02;;;;;;;;;20.00;20.00;;;;;-146.44;100.00;58906.56;5022498;28;45536;-66
2022/12/03 09:24:27;;;;;;;;;21.25;21.25;;;;;-146.44;100.00;58906.56;5015258;28;46063;-64
2022/12/03 09:26:52;;;;;;;;;24.25;21.25;;;;;-146.44;100.00;58906.56;5015143;28;45404;-66
2022/12/03 09:29:18;;;;;;;;;30.25;27.75;;;;;-146.44;100.00;58906.56;5015321;28;45557;-66
2022/12/03 09:31:43;;;;;;;;;29.75;25.00;;;;;-146.44;100.00;58906.56;5028238;28;51200;-68
2022/12/03 09:34:09;;;;;;;;;29.00;25.25;;;;;-146.44;100.00;58906.56;5014963;28;46263;-67
2022/12/03 09:36:34;;;;;;;;;21.75;21.50;;;;;-146.44;100.00;58906.56;5016989;28;45558;-66
2022/12/03 09:38:59;;;;;;;;;25.00;24.75;;;;;-146.44;100.00;58906.56;5015320;28;45419;-65
2022/12/03 09:41:25;;;;;;;;;25.25;24.75;;;;;-146.44;100.00;58906.56;5003868;28;45546;-66
2022/12/03 09:43:52;;;;;;;;;24.75;20.00;;;;;-146.44;100.00;58906.56;5014706;28;46412;-63
2022/12/03 09:46:20;;;;;;;;;25.00;22.75;;;;;-146.44;100.00;58906.56;5014870;28;45474;-64
2022/12/03 09:48:45;;;;;;;;;24.00;22.50;;;;;-146.44;100.00;58906.56;5015806;28;45458;-65
2022/12/03 09:51:11;;;;;;;;;26.75;23.50;;;;;-146.44;100.00;58906.56;5015497;28;45567;-66
2022/12/03 09:53:38;;;;;;;;;21.75;21.75;;;;;-146.44;100.00;58906.56;5014583;28;46156;-56
2022/12/03 09:56:03;;;;;;;;;24.00;22.25;;;;;-146.44;100.00;58906.56;5014912;28;45425;-57
2022/12/03 09:58:29;;;;;;;;;22.25;19.50;;;;;-146.44;100.00;58906.56;5013582;28;45726;-52
2022/12/03 10:00:55;;;;;;;;;9.00;6.00;;;;;-146.44;100.00;58906.56;5014840;28;45574;-55
2022/12/03 10:03:25;;;;;;;;;25.50;18.25;;;;;-146.44;100.00;58906.56;5014598;28;46149;-53
2022/12/03 10:05:52;;;;;;;;;21.00;21.00;;;;;-146.44;100.00;58906.56;5014478;28;45517;-51
2022/12/03 10:08:21;;;;;;;;;25.00;24.25;;;;;-146.44;100.00;58906.56;5011958;28;45529;-51
2022/12/03 10:10:49;;;;;;;;;20.25;17.75;;;;;-146.44;100.00;58906.56;5014541;28;45553;-52
2022/12/03 10:13:22;;;;;;;;;19.75;19.00;;;;;-146.44;100.00;58906.56;5007351;28;45544;-55
2022/12/03 10:15:48;;;;;;;;;19.50;19.50;;;;;-146.44;100.00;58906.56;5011656;28;45493;-56
2022/12/03 10:18:26;;;;;;;;;21.50;17.50;;;;;-146.44;100.00;58906.56;5014564;28;45466;-59
2022/12/03 10:20:52;;;;;;;;;24.00;21.00;;;;;-146.44;100.00;58906.56;5014241;28;45589;-58
2022/12/03 10:23:29;;;;;;;;;28.25;22.25;;;;;-146.44;100.00;58906.56;5014285;28;46054;-55
2022/12/03 10:26:01;;;;;;;;;29.75;25.75;;;;;-146.44;100.00;58906.56;5014035;28;45383;-63
2022/12/03 10:28:35;;;;;;;;;22.25;20.25;;;;;-146.44;100.00;58906.56;5011167;28;45493;-59
2022/12/03 10:31:04;;;;;;;;;25.75;21.25;;;;;-146.44;100.00;58906.56;5014146;28;45581;-59
2022/12/03 10:33:52;;;;;;;;;26.25;21.00;;;;;-146.44;100.00;58906.56;5013843;28;45535;-59
2022/12/03 10:36:22;;;;;;;;;20.75;19.75;;;;;-146.44;100.00;58906.56;5006415;28;45403;-59
2022/12/03 10:39:17;;;;;;;;;24.25;21.50;;;;;-146.44;100.00;58906.56;5021899;28;45467;-59
2022/12/03 10:41:47;;;;;;;;;30.00;26.25;;;;;-146.44;100.00;58906.56;5001551;28;45579;-58
2022/12/03 10:44:20;;;;;;;;;23.00;20.50;;;;;-146.44;100.00;58906.56;5013343;28;45470;-59
2022/12/03 10:47:05;;;;;;;;;25.75;25.75;;;;;-146.44;100.00;58906.56;5013806;28;45489;-59
2022/12/03 10:49:30;;;;;;;;;23.25;21.50;;;;;-146.44;100.00;58906.56;5013674;28;45497;-58
2022/12/03 10:51:56;;;;;;;;;21.25;20.50;;;;;-146.44;100.00;58906.56;5013816;28;45563;-58
2022/12/03 10:54:23;;;;;;;;;23.75;23.75;;;;;-146.44;100.00;58906.56;5014094;28;45984;-58
2022/12/03 10:56:50;;;;;;;;;24.25;23.00;;;;;-146.44;100.00;58906.56;5013685;28;45558;-58
2022/12/03 10:59:20;;;;;;;;;22.75;22.75;;;;;-146.44;100.00;58906.56;5013873;28;45479;-58
2022/12/03 11:01:46;;;;;;;;;25.25;23.75;;;;;-146.44;100.00;58906.56;5013632;28;45610;-58
2022/12/03 11:04:34;;;;;;;;;20.00;19.75;;;;;-146.44;100.00;58906.56;5012939;28;46287;-58
2022/12/03 11:07:13;;;;;;;;;27.75;25.75;;;;;-146.44;100.00;58906.56;5013527;28;45543;-58
2022/12/03 11:09:42;;;;;;;;;24.25;22.25;;;;;-146.44;100.00;58906.56;5014042;28;45505;-58
2022/12/03 11:12:18;;;;;;;;;24.00;22.75;;;;;-146.44;100.00;58906.56;5013633;28;45655;-57
2022/12/03 11:14:53;;;;;;;;;25.00;23.50;;;;;-146.44;100.00;58906.56;5013455;28;45482;-58